createdAt,value
2018-03-22T00:01:39.011Z,16.93
2018-03-22T00:06:40.717Z,20.20
2018-03-22T00:11:42.248Z,17.33
2018-03-22T00:16:43.765Z,19.87
2018-03-22T00:21:45.336Z,19.70
2018-03-22T00:26:46.882Z,19.57
2018-03-22T00:31:48.398Z,20.07
2018-03-22T00:36:50.649Z,21.53
2018-03-22T00:41:52.213Z,19.03
2018-03-22T00:46:53.724Z,22.00
2018-03-22T00:51:55.998Z,21.30
2018-03-22T00:56:58.252Z,18.57
2018-03-22T01:01:59.901Z,20.77
2018-03-22T01:07:01.420Z,19.63
2018-03-22T01:12:02.955Z,19.50
2018-03-22T01:17:04.475Z,21.00
2018-03-22T01:22:06.737Z,18.87
2018-03-22T01:27:08.245Z,21.40
2018-03-22T01:32:09.775Z,20.80
2018-03-22T01:37:11.332Z,20.30
2018-03-22T01:42:12.852Z,20.57
2018-03-22T01:47:14.391Z,19.00
2018-03-22T01:52:16.641Z,19.30
2018-03-22T01:57:18.166Z,21.37
2018-03-22T02:02:19.701Z,22.73
2018-03-22T02:07:21.229Z,22.63
2018-03-22T02:12:22.775Z,19.93
2018-03-22T02:17:24.332Z,20.80
2018-03-22T02:22:25.867Z,20.70
2018-03-22T02:27:28.160Z,21.33
2018-03-22T02:32:30.368Z,21.07
2018-03-22T02:37:31.893Z,21.20
2018-03-22T02:42:33.446Z,21.70
2018-03-22T02:47:34.945Z,20.73
2018-03-22T02:52:37.281Z,22.93
2018-03-22T02:57:38.904Z,20.37
2018-03-22T03:02:41.161Z,20.03
2018-03-22T03:07:49.623Z,23.20
2018-03-22T03:12:51.881Z,20.50
2018-03-22T03:17:53.435Z,20.53
2018-03-22T03:22:54.942Z,21.20
2018-03-22T03:27:57.239Z,23.50
2018-03-22T03:32:58.780Z,18.90
2018-03-22T03:38:00.311Z,19.27
2018-03-22T03:43:02.098Z,17.17
2018-03-22T03:48:03.641Z,16.80
2018-03-22T03:53:05.169Z,15.70
2018-03-22T03:58:07.451Z,18.07
2018-03-22T04:03:09.708Z,15.90
2018-03-22T04:08:11.217Z,15.30
2018-03-22T04:13:13.597Z,16.87
2018-03-22T04:18:15.984Z,16.47
2018-03-22T04:23:18.338Z,15.70
2018-03-22T04:28:19.911Z,14.97
2018-03-22T04:33:21.429Z,15.17
2018-03-22T04:38:22.958Z,17.07
2018-03-22T04:43:24.506Z,15.97
2018-03-22T04:48:26.032Z,15.60
2018-03-22T04:53:27.555Z,16.37
2018-03-22T04:58:29.062Z,14.87
2018-03-22T05:03:30.621Z,16.80
2018-03-22T05:08:32.173Z,16.83
2018-03-22T05:13:34.438Z,17.00
2018-03-22T05:18:35.951Z,15.03
2018-03-22T05:23:38.168Z,14.87
2018-03-22T05:28:39.704Z,14.90
2018-03-22T05:33:41.924Z,14.83
2018-03-22T05:38:43.454Z,15.17
2018-03-22T05:43:46.987Z,14.47
2018-03-22T05:48:48.492Z,14.17
2018-03-22T05:53:50.019Z,12.33
2018-03-22T05:58:52.133Z,12.03
2018-03-22T06:03:53.738Z,12.70
2018-03-22T06:08:56.002Z,11.93
2018-03-22T06:13:57.545Z,13.00
2018-03-22T06:18:59.046Z,14.27
2018-03-22T06:24:00.538Z,11.80
2018-03-22T06:29:02.042Z,13.47
2018-03-22T06:34:03.532Z,12.33
2018-03-22T06:39:05.097Z,12.93
2018-03-22T06:44:06.620Z,12.10
2018-03-22T06:49:08.193Z,10.90
2018-03-22T06:54:09.721Z,10.07
2018-03-22T06:59:11.325Z,10.30
2018-03-22T07:04:12.965Z,10.80
2018-03-22T07:09:15.229Z,9.00
2018-03-22T07:14:16.941Z,9.90
2018-03-22T07:19:18.481Z,10.63
2018-03-22T07:24:20.064Z,9.90
2018-03-22T07:29:22.338Z,10.00
2018-03-22T07:34:23.895Z,11.50
2018-03-22T07:39:25.442Z,11.40
2018-03-22T07:44:33.112Z,12.43
2018-03-22T07:49:34.751Z,20.20
2018-03-22T07:54:36.327Z,12.43
2018-03-22T07:59:38.577Z,12.13
2018-03-22T08:04:40.070Z,11.87
2018-03-22T08:09:41.679Z,11.40
2018-03-22T08:14:43.256Z,10.77
2018-03-22T08:19:44.794Z,11.70
2018-03-22T08:24:47.206Z,11.60
2018-03-22T08:29:48.755Z,11.43
2018-03-22T08:34:50.335Z,11.40
2018-03-22T08:39:51.836Z,12.13
2018-03-22T08:44:53.426Z,11.70
2018-03-22T08:49:54.972Z,12.63
2018-03-22T08:54:56.629Z,12.10
2018-03-22T08:59:58.159Z,13.67
2018-03-22T09:05:00.443Z,13.93
2018-03-22T09:10:02.692Z,18.00
2018-03-22T09:15:04.242Z,16.40
2018-03-22T09:20:05.779Z,19.03
2018-03-22T09:25:07.429Z,23.17
2018-03-22T09:30:09.734Z,25.47
2018-03-22T09:35:12.025Z,26.93
2018-03-22T09:40:13.638Z,22.57
2018-03-22T09:45:15.189Z,27.90
2018-03-22T09:50:16.733Z,27.10
2018-03-22T09:55:18.282Z,25.10
2018-03-22T10:00:20.570Z,25.77
2018-03-22T10:05:22.857Z,25.90
2018-03-22T10:10:25.195Z,30.03
2018-03-22T10:15:26.760Z,30.30
2018-03-22T10:20:28.331Z,27.10
2018-03-22T10:25:29.869Z,29.37
2018-03-22T10:30:31.463Z,27.70
2018-03-22T10:35:33.008Z,30.60
2018-03-22T10:40:34.559Z,28.30
2018-03-22T10:45:43.943Z,28.63
2018-03-22T10:50:45.519Z,28.70
2018-03-22T10:55:47.058Z,29.20
2018-03-22T11:00:54.580Z,30.77
2018-03-22T11:05:56.130Z,30.47
2018-03-22T11:10:57.713Z,28.83
2018-03-22T11:15:59.284Z,31.30
2018-03-22T11:21:00.866Z,31.80
2018-03-22T11:26:02.414Z,30.30
2018-03-22T11:31:03.927Z,32.80
2018-03-22T11:36:05.500Z,36.77
2018-03-22T11:41:07.011Z,31.00
2018-03-22T11:46:11.105Z,30.40
2018-03-22T11:51:12.632Z,31.60
2018-03-22T11:56:14.185Z,33.67
2018-03-22T12:01:15.758Z,29.40
2018-03-22T12:06:17.336Z,28.83
2018-03-22T12:11:18.895Z,29.33
2018-03-22T12:16:20.456Z,27.67
2018-03-22T12:21:22.024Z,26.27
2018-03-22T12:26:23.612Z,26.70
2018-03-22T12:31:25.159Z,26.67
2018-03-22T12:36:26.655Z,24.20
2018-03-22T12:41:28.148Z,22.63
2018-03-22T12:46:29.863Z,18.70
2018-03-22T12:51:31.460Z,19.23
2018-03-22T12:56:32.990Z,20.07
2018-03-22T13:01:34.572Z,16.70
2018-03-22T13:06:36.328Z,18.70
2018-03-22T13:11:38.563Z,17.73
2018-03-22T13:16:40.179Z,16.10
2018-03-22T13:21:42.477Z,18.07
2018-03-22T13:26:44.013Z,15.83
2018-03-22T13:31:45.586Z,16.47
2018-03-22T13:36:47.873Z,18.33
2018-03-22T13:41:50.186Z,16.47
2018-03-22T13:46:51.758Z,16.70
2018-03-22T13:51:53.362Z,16.63
2018-03-22T13:56:54.973Z,16.67
2018-03-22T14:01:57.306Z,26.37
2018-03-22T14:06:58.986Z,18.30
2018-03-22T14:12:00.576Z,16.53
2018-03-22T14:17:02.113Z,17.70
2018-03-22T14:22:03.665Z,16.77
2018-03-22T14:27:05.233Z,16.03
2018-03-22T14:32:06.805Z,15.47
2018-03-22T14:37:08.486Z,15.73
2018-03-22T14:42:10.011Z,13.80
2018-03-22T14:47:12.368Z,13.97
2018-03-22T14:52:13.941Z,14.37
2018-03-22T14:57:15.526Z,13.37
2018-03-22T15:02:17.087Z,14.57
2018-03-22T15:07:18.662Z,14.17
2018-03-22T15:12:20.238Z,14.00
2018-03-22T15:17:22.549Z,14.87
2018-03-22T15:22:24.123Z,14.40
2018-03-22T15:27:25.693Z,14.70
2018-03-22T15:32:27.364Z,15.93
2018-03-22T15:37:28.905Z,17.50
2018-03-22T15:42:31.252Z,15.40
2018-03-22T15:47:32.805Z,14.80
2018-03-22T15:52:34.370Z,15.20
2018-03-22T15:57:35.943Z,16.17
2018-03-22T16:02:37.540Z,14.60
2018-03-22T16:07:39.114Z,14.77
2018-03-22T16:12:40.660Z,18.43
2018-03-22T16:17:42.336Z,15.23
2018-03-22T16:22:44.929Z,19.17
2018-03-22T16:27:46.523Z,16.37
2018-03-22T16:32:48.106Z,15.03
2018-03-22T16:37:50.429Z,14.20
2018-03-22T16:42:51.964Z,13.73
2018-03-22T16:47:54.266Z,13.20
2018-03-22T16:52:55.776Z,14.07
2018-03-22T16:57:57.415Z,13.60
2018-03-22T17:02:59.025Z,12.17
2018-03-22T17:08:00.579Z,12.10
2018-03-22T17:13:02.141Z,12.20
2018-03-22T17:18:03.625Z,12.10
2018-03-22T17:23:05.189Z,13.87
2018-03-22T17:28:06.765Z,14.40
2018-03-22T17:33:08.349Z,16.83
2018-03-22T17:38:10.004Z,15.13
2018-03-22T17:43:11.726Z,16.73
2018-03-22T17:48:13.267Z,15.03
2018-03-22T17:53:15.858Z,15.60
2018-03-22T17:58:18.868Z,19.37
2018-03-22T18:03:21.709Z,15.10
2018-03-22T18:08:23.823Z,15.20
2018-03-22T18:13:26.502Z,15.70
2018-03-22T18:18:29.699Z,15.50
2018-03-22T18:23:31.592Z,17.77
2018-03-22T18:28:34.427Z,14.40
2018-03-22T18:33:37.024Z,17.17
2018-03-22T18:38:39.948Z,17.43
2018-03-22T18:43:44.728Z,19.23
2018-03-22T18:48:48.044Z,15.43
2018-03-22T18:53:52.793Z,15.77
2018-03-22T18:58:56.790Z,16.33
2018-03-22T19:04:00.497Z,20.37
2018-03-22T19:09:04.956Z,18.20
2018-03-22T19:14:08.147Z,16.83
2018-03-22T19:19:12.266Z,17.90
2018-03-22T19:24:15.524Z,21.07
2018-03-22T19:29:26.217Z,16.60
2018-03-22T19:34:30.350Z,17.97
2018-03-22T19:39:33.839Z,18.90
2018-03-22T19:44:37.717Z,39.07
2018-03-22T19:49:41.867Z,25.50
2018-03-22T19:54:48.064Z,20.33
2018-03-22T19:59:51.282Z,21.33
2018-03-22T20:04:55.106Z,21.60
2018-03-22T20:09:58.879Z,19.60
2018-03-22T20:15:02.574Z,17.13
2018-03-22T20:20:05.965Z,18.80
2018-03-22T20:25:09.875Z,18.80
2018-03-22T20:30:17.268Z,17.67
2018-03-22T20:35:21.057Z,17.67
2018-03-22T20:40:25.284Z,19.57
2018-03-22T20:45:29.592Z,20.17
2018-03-22T20:50:32.983Z,23.00
2018-03-22T20:55:36.836Z,21.47
2018-03-22T21:00:42.354Z,24.17
2018-03-22T21:05:44.279Z,25.87
2018-03-22T21:10:46.097Z,23.93
2018-03-22T21:15:47.882Z,25.20
2018-03-22T21:20:49.555Z,28.07
2018-03-22T21:25:51.398Z,25.17
2018-03-22T21:30:54.962Z,28.77
2018-03-22T21:35:57.593Z,26.60
2018-03-22T21:40:59.189Z,28.80
2018-03-22T21:46:00.831Z,28.73
2018-03-22T21:51:02.512Z,28.93
2018-03-22T21:56:04.123Z,28.70
2018-03-22T22:01:05.726Z,31.97
2018-03-22T22:06:07.448Z,30.37
2018-03-22T22:11:09.252Z,30.60
2018-03-22T22:16:11.592Z,30.50
2018-03-22T22:21:13.217Z,36.10
2018-03-22T22:26:15.606Z,31.67
2018-03-22T22:31:23.844Z,30.53
2018-03-22T22:36:30.663Z,32.10
2018-03-22T22:41:39.441Z,28.40
2018-03-22T22:46:46.428Z,29.63
2018-03-22T22:51:57.840Z,29.33
2018-03-22T22:56:59.828Z,32.20
2018-03-22T23:02:06.801Z,33.63
2018-03-22T23:07:11.343Z,31.33
2018-03-22T23:12:17.992Z,31.87
2018-03-22T23:17:22.780Z,33.63
2018-03-22T23:22:27.311Z,33.10
2018-03-22T23:27:32.809Z,29.57
2018-03-22T23:32:37.800Z,34.27
2018-03-22T23:37:43.060Z,33.33
2018-03-22T23:42:51.342Z,33.10
2018-03-22T23:47:58.199Z,33.77
2018-03-22T23:53:03.541Z,34.90
2018-03-22T23:58:09.676Z,32.47
